sensor_id;sensor_type;location;lat;lon;timestamp;P1;durP1;ratioP1;P2;durP2;ratioP2
67997;SDS011;54773;53.388;-1.504;2023-04-03T00:02:09;7.70;;;2.97;;
67997;SDS011;54773;53.388;-1.504;2023-04-03T00:04:52;7.47;;;2.33;;
67997;SDS011;54773;53.388;-1.504;2023-04-03T00:07:36;6.38;;;2.80;;
67997;SDS011;54773;53.388;-1.504;2023-04-03T00:10:20;6.47;;;2.60;;
67997;SDS011;54773;53.388;-1.504;2023-04-03T00:13:05;5.93;;;2.70;;
67997;SDS011;54773;53.388;-1.504;2023-04-03T00:18:34;5.28;;;2.55;;
67997;SDS011;54773;53.388;-1.504;2023-04-03T00:21:18;5.22;;;2.80;;
67997;SDS011;54773;53.388;-1.504;2023-04-03T00:24:03;8.07;;;2.88;;
67997;SDS011;54773;53.388;-1.504;2023-04-03T00:26:47;7.40;;;2.65;;
67997;SDS011;54773;53.388;-1.504;2023-04-03T00:29:31;8.13;;;2.60;;
67997;SDS011;54773;53.388;-1.504;2023-04-03T00:32:18;5.75;;;2.13;;
67997;SDS011;54773;53.388;-1.504;2023-04-03T00:35:02;8.50;;;2.90;;
67997;SDS011;54773;53.388;-1.504;2023-04-03T00:40:35;6.50;;;2.78;;
67997;SDS011;54773;53.388;-1.504;2023-04-03T00:43:25;8.10;;;2.55;;
67997;SDS011;54773;53.388;-1.504;2023-04-03T00:46:10;8.00;;;3.00;;
67997;SDS011;54773;53.388;-1.504;2023-04-03T00:48:54;6.17;;;2.83;;
67997;SDS011;54773;53.388;-1.504;2023-04-03T00:51:38;6.10;;;2.42;;
67997;SDS011;54773;53.388;-1.504;2023-04-03T00:54:21;7.88;;;3.35;;
67997;SDS011;54773;53.388;-1.504;2023-04-03T00:57:09;7.55;;;2.92;;
67997;SDS011;54773;53.388;-1.504;2023-04-03T00:59:55;7.60;;;3.08;;
67997;SDS011;54773;53.388;-1.504;2023-04-03T01:02:43;7.10;;;3.00;;
67997;SDS011;54773;53.388;-1.504;2023-04-03T01:05:27;7.05;;;2.80;;
67997;SDS011;54773;53.388;-1.504;2023-04-03T01:08:11;8.37;;;2.97;;
67997;SDS011;54773;53.388;-1.504;2023-04-03T01:10:55;8.82;;;2.83;;
67997;SDS011;54773;53.388;-1.504;2023-04-03T01:13:39;6.22;;;2.83;;
67997;SDS011;54773;53.388;-1.504;2023-04-03T01:16:26;7.03;;;2.88;;
67997;SDS011;54773;53.388;-1.504;2023-04-03T01:19:12;9.63;;;3.83;;
67997;SDS011;54773;53.388;-1.504;2023-04-03T01:22:11;7.88;;;3.00;;
67997;SDS011;54773;53.388;-1.504;2023-04-03T01:25:01;6.50;;;2.90;;
67997;SDS011;54773;53.388;-1.504;2023-04-03T01:27:45;7.77;;;2.93;;
67997;SDS011;54773;53.388;-1.504;2023-04-03T01:30:34;6.88;;;2.63;;
67997;SDS011;54773;53.388;-1.504;2023-04-03T01:33:20;10.52;;;3.05;;
67997;SDS011;54773;53.388;-1.504;2023-04-03T01:36:04;7.60;;;3.63;;
67997;SDS011;54773;53.388;-1.504;2023-04-03T01:38:49;8.18;;;3.00;;
67997;SDS011;54773;53.388;-1.504;2023-04-03T01:41:34;7.88;;;2.83;;
67997;SDS011;54773;53.388;-1.504;2023-04-03T01:44:17;10.70;;;3.53;;
67997;SDS011;54773;53.388;-1.504;2023-04-03T01:47:05;5.38;;;2.90;;
67997;SDS011;54773;53.388;-1.504;2023-04-03T01:49:53;7.45;;;3.08;;
67997;SDS011;54773;53.388;-1.504;2023-04-03T01:52:37;7.15;;;3.47;;
67997;SDS011;54773;53.388;-1.504;2023-04-03T01:55:21;8.18;;;3.30;;
67997;SDS011;54773;53.388;-1.504;2023-04-03T01:58:05;15.88;;;3.88;;
67997;SDS011;54773;53.388;-1.504;2023-04-03T02:00:50;10.25;;;3.80;;
67997;SDS011;54773;53.388;-1.504;2023-04-03T02:03:35;5.75;;;2.97;;
67997;SDS011;54773;53.388;-1.504;2023-04-03T02:06:20;9.35;;;2.92;;
67997;SDS011;54773;53.388;-1.504;2023-04-03T02:09:04;7.10;;;3.00;;
67997;SDS011;54773;53.388;-1.504;2023-04-03T02:11:49;8.65;;;3.03;;
67997;SDS011;54773;53.388;-1.504;2023-04-03T02:14:33;6.53;;;3.10;;
67997;SDS011;54773;53.388;-1.504;2023-04-03T02:17:17;10.07;;;2.92;;
67997;SDS011;54773;53.388;-1.504;2023-04-03T02:20:01;10.02;;;3.13;;
67997;SDS011;54773;53.388;-1.504;2023-04-03T02:22:46;8.00;;;2.95;;
67997;SDS011;54773;53.388;-1.504;2023-04-03T02:25:31;9.57;;;3.42;;
67997;SDS011;54773;53.388;-1.504;2023-04-03T02:28:16;7.15;;;3.10;;
67997;SDS011;54773;53.388;-1.504;2023-04-03T02:31:04;9.23;;;4.10;;
67997;SDS011;54773;53.388;-1.504;2023-04-03T02:33:49;9.27;;;3.17;;
67997;SDS011;54773;53.388;-1.504;2023-04-03T02:36:36;8.25;;;3.08;;
67997;SDS011;54773;53.388;-1.504;2023-04-03T02:39:20;7.18;;;3.00;;
67997;SDS011;54773;53.388;-1.504;2023-04-03T02:42:05;5.57;;;2.97;;
67997;SDS011;54773;53.388;-1.504;2023-04-03T02:44:49;8.90;;;3.33;;
67997;SDS011;54773;53.388;-1.504;2023-04-03T02:47:33;7.72;;;3.40;;
67997;SDS011;54773;53.388;-1.504;2023-04-03T02:50:17;9.38;;;3.00;;
67997;SDS011;54773;53.388;-1.504;2023-04-03T02:53:01;6.65;;;2.60;;
67997;SDS011;54773;53.388;-1.504;2023-04-03T02:55:45;8.57;;;3.17;;
67997;SDS011;54773;53.388;-1.504;2023-04-03T02:58:29;6.13;;;2.80;;
67997;SDS011;54773;53.388;-1.504;2023-04-03T03:01:13;9.23;;;2.97;;
67997;SDS011;54773;53.388;-1.504;2023-04-03T03:03:58;6.32;;;3.42;;
67997;SDS011;54773;53.388;-1.504;2023-04-03T03:06:44;9.02;;;3.58;;
67997;SDS011;54773;53.388;-1.504;2023-04-03T03:09:28;9.95;;;3.20;;
67997;SDS011;54773;53.388;-1.504;2023-04-03T03:12:12;8.27;;;3.08;;
67997;SDS011;54773;53.388;-1.504;2023-04-03T03:14:56;7.75;;;2.55;;
67997;SDS011;54773;53.388;-1.504;2023-04-03T03:17:40;5.90;;;2.63;;
67997;SDS011;54773;53.388;-1.504;2023-04-03T03:20:27;7.45;;;2.80;;
67997;SDS011;54773;53.388;-1.504;2023-04-03T03:23:11;7.68;;;3.20;;
67997;SDS011;54773;53.388;-1.504;2023-04-03T03:25:56;5.90;;;2.43;;
67997;SDS011;54773;53.388;-1.504;2023-04-03T03:28:41;5.20;;;2.55;;
67997;SDS011;54773;53.388;-1.504;2023-04-03T03:31:26;7.88;;;3.08;;
67997;SDS011;54773;53.388;-1.504;2023-04-03T03:34:10;8.30;;;3.10;;
67997;SDS011;54773;53.388;-1.504;2023-04-03T03:36:55;7.68;;;3.00;;
67997;SDS011;54773;53.388;-1.504;2023-04-03T03:39:39;7.28;;;3.47;;
67997;SDS011;54773;53.388;-1.504;2023-04-03T03:42:24;7.47;;;3.03;;
67997;SDS011;54773;53.388;-1.504;2023-04-03T03:45:08;6.20;;;2.60;;
67997;SDS011;54773;53.388;-1.504;2023-04-03T03:47:52;6.75;;;2.78;;
67997;SDS011;54773;53.388;-1.504;2023-04-03T03:50:39;7.43;;;2.65;;
67997;SDS011;54773;53.388;-1.504;2023-04-03T03:53:23;9.00;;;3.03;;
67997;SDS011;54773;53.388;-1.504;2023-04-03T03:56:08;7.85;;;3.65;;
67997;SDS011;54773;53.388;-1.504;2023-04-03T03:58:55;7.93;;;3.20;;
67997;SDS011;54773;53.388;-1.504;2023-04-03T04:01:39;6.30;;;2.85;;
67997;SDS011;54773;53.388;-1.504;2023-04-03T04:04:23;6.43;;;3.10;;
67997;SDS011;54773;53.388;-1.504;2023-04-03T04:07:11;6.63;;;3.25;;
67997;SDS011;54773;53.388;-1.504;2023-04-03T04:09:55;6.72;;;3.30;;
67997;SDS011;54773;53.388;-1.504;2023-04-03T04:12:39;7.88;;;3.20;;
67997;SDS011;54773;53.388;-1.504;2023-04-03T04:15:24;8.75;;;2.97;;
67997;SDS011;54773;53.388;-1.504;2023-04-03T04:18:09;7.38;;;2.90;;
67997;SDS011;54773;53.388;-1.504;2023-04-03T04:20:59;7.25;;;3.25;;
67997;SDS011;54773;53.388;-1.504;2023-04-03T04:23:43;7.97;;;2.88;;
67997;SDS011;54773;53.388;-1.504;2023-04-03T04:26:28;9.18;;;2.80;;
67997;SDS011;54773;53.388;-1.504;2023-04-03T04:29:12;7.03;;;2.88;;
67997;SDS011;54773;53.388;-1.504;2023-04-03T04:31:56;5.88;;;2.83;;
67997;SDS011;54773;53.388;-1.504;2023-04-03T04:34:40;8.73;;;3.15;;
67997;SDS011;54773;53.388;-1.504;2023-04-03T04:37:23;8.20;;;3.30;;
67997;SDS011;54773;53.388;-1.504;2023-04-03T04:40:08;10.50;;;2.72;;
67997;SDS011;54773;53.388;-1.504;2023-04-03T04:42:52;5.40;;;3.13;;
67997;SDS011;54773;53.388;-1.504;2023-04-03T04:45:36;6.13;;;3.00;;
67997;SDS011;54773;53.388;-1.504;2023-04-03T04:48:20;6.72;;;2.70;;
67997;SDS011;54773;53.388;-1.504;2023-04-03T04:51:04;8.20;;;2.78;;
67997;SDS011;54773;53.388;-1.504;2023-04-03T04:53:49;7.13;;;2.75;;
67997;SDS011;54773;53.388;-1.504;2023-04-03T04:56:32;7.88;;;2.63;;
67997;SDS011;54773;53.388;-1.504;2023-04-03T04:59:17;9.23;;;3.20;;
67997;SDS011;54773;53.388;-1.504;2023-04-03T05:02:01;9.57;;;3.17;;
67997;SDS011;54773;53.388;-1.504;2023-04-03T05:04:45;9.68;;;3.22;;
67997;SDS011;54773;53.388;-1.504;2023-04-03T05:07:29;13.47;;;4.50;;
67997;SDS011;54773;53.388;-1.504;2023-04-03T05:10:13;7.60;;;3.58;;
67997;SDS011;54773;53.388;-1.504;2023-04-03T05:12:57;6.85;;;3.05;;
67997;SDS011;54773;53.388;-1.504;2023-04-03T05:15:42;7.38;;;3.13;;
67997;SDS011;54773;53.388;-1.504;2023-04-03T05:18:26;8.60;;;3.40;;
67997;SDS011;54773;53.388;-1.504;2023-04-03T05:21:10;7.30;;;3.90;;
67997;SDS011;54773;53.388;-1.504;2023-04-03T05:23:54;11.00;;;3.93;;
67997;SDS011;54773;53.388;-1.504;2023-04-03T05:26:38;10.38;;;3.90;;
67997;SDS011;54773;53.388;-1.504;2023-04-03T05:29:21;9.17;;;3.80;;
67997;SDS011;54773;53.388;-1.504;2023-04-03T05:32:05;7.90;;;3.35;;
67997;SDS011;54773;53.388;-1.504;2023-04-03T05:34:49;7.72;;;3.20;;
67997;SDS011;54773;53.388;-1.504;2023-04-03T05:37:34;7.45;;;3.00;;
67997;SDS011;54773;53.388;-1.504;2023-04-03T05:40:19;10.52;;;3.92;;
67997;SDS011;54773;53.388;-1.504;2023-04-03T05:43:03;7.77;;;3.07;;
67997;SDS011;54773;53.388;-1.504;2023-04-03T05:45:47;6.47;;;3.17;;
67997;SDS011;54773;53.388;-1.504;2023-04-03T05:48:32;5.65;;;3.05;;
67997;SDS011;54773;53.388;-1.504;2023-04-03T05:51:22;8.38;;;3.28;;
67997;SDS011;54773;53.388;-1.504;2023-04-03T05:54:12;6.20;;;3.35;;
67997;SDS011;54773;53.388;-1.504;2023-04-03T05:57:07;7.50;;;3.72;;
67997;SDS011;54773;53.388;-1.504;2023-04-03T05:59:51;13.32;;;4.50;;
67997;SDS011;54773;53.388;-1.504;2023-04-03T06:02:35;9.73;;;3.60;;
67997;SDS011;54773;53.388;-1.504;2023-04-03T06:05:22;8.80;;;3.10;;
67997;SDS011;54773;53.388;-1.504;2023-04-03T06:08:07;6.63;;;3.75;;
67997;SDS011;54773;53.388;-1.504;2023-04-03T06:10:52;7.93;;;3.97;;
67997;SDS011;54773;53.388;-1.504;2023-04-03T06:13:36;9.23;;;4.10;;
67997;SDS011;54773;53.388;-1.504;2023-04-03T06:16:21;8.93;;;3.50;;
67997;SDS011;54773;53.388;-1.504;2023-04-03T06:19:06;8.32;;;3.72;;
67997;SDS011;54773;53.388;-1.504;2023-04-03T06:21:51;8.90;;;3.17;;
67997;SDS011;54773;53.388;-1.504;2023-04-03T06:24:36;9.15;;;3.30;;
67997;SDS011;54773;53.388;-1.504;2023-04-03T06:27:21;7.57;;;3.67;;
67997;SDS011;54773;53.388;-1.504;2023-04-03T06:30:05;10.50;;;4.43;;
67997;SDS011;54773;53.388;-1.504;2023-04-03T06:32:50;9.15;;;4.30;;
67997;SDS011;54773;53.388;-1.504;2023-04-03T06:35:35;8.25;;;4.10;;
67997;SDS011;54773;53.388;-1.504;2023-04-03T06:38:22;9.52;;;4.20;;
67997;SDS011;54773;53.388;-1.504;2023-04-03T06:41:06;11.55;;;4.30;;
67997;SDS011;54773;53.388;-1.504;2023-04-03T06:43:50;11.00;;;4.53;;
67997;SDS011;54773;53.388;-1.504;2023-04-03T06:46:36;8.20;;;3.65;;
67997;SDS011;54773;53.388;-1.504;2023-04-03T06:49:21;9.65;;;3.95;;
67997;SDS011;54773;53.388;-1.504;2023-04-03T06:54:50;7.85;;;3.83;;
67997;SDS011;54773;53.388;-1.504;2023-04-03T06:57:40;7.18;;;3.60;;
67997;SDS011;54773;53.388;-1.504;2023-04-03T07:00:25;10.13;;;4.05;;
67997;SDS011;54773;53.388;-1.504;2023-04-03T07:03:10;7.88;;;3.70;;
67997;SDS011;54773;53.388;-1.504;2023-04-03T07:05:55;10.60;;;4.38;;
67997;SDS011;54773;53.388;-1.504;2023-04-03T07:08:43;7.55;;;3.50;;
67997;SDS011;54773;53.388;-1.504;2023-04-03T07:11:28;11.07;;;4.00;;
67997;SDS011;54773;53.388;-1.504;2023-04-03T07:14:13;11.63;;;3.63;;
67997;SDS011;54773;53.388;-1.504;2023-04-03T07:16:58;7.30;;;3.38;;
67997;SDS011;54773;53.388;-1.504;2023-04-03T07:19:42;11.45;;;3.47;;
67997;SDS011;54773;53.388;-1.504;2023-04-03T07:22:26;9.93;;;3.13;;
67997;SDS011;54773;53.388;-1.504;2023-04-03T07:25:13;7.85;;;2.97;;
67997;SDS011;54773;53.388;-1.504;2023-04-03T07:27:57;6.90;;;2.83;;
67997;SDS011;54773;53.388;-1.504;2023-04-03T07:30:45;10.20;;;3.05;;
67997;SDS011;54773;53.388;-1.504;2023-04-03T07:33:34;6.97;;;3.20;;
67997;SDS011;54773;53.388;-1.504;2023-04-03T07:36:22;11.02;;;3.63;;
67997;SDS011;54773;53.388;-1.504;2023-04-03T07:39:06;10.15;;;4.47;;
67997;SDS011;54773;53.388;-1.504;2023-04-03T07:41:51;8.75;;;3.92;;
67997;SDS011;54773;53.388;-1.504;2023-04-03T07:44:35;9.68;;;3.38;;
67997;SDS011;54773;53.388;-1.504;2023-04-03T07:47:20;7.28;;;3.80;;
67997;SDS011;54773;53.388;-1.504;2023-04-03T07:50:05;12.45;;;5.43;;
67997;SDS011;54773;53.388;-1.504;2023-04-03T07:52:49;12.40;;;5.13;;
67997;SDS011;54773;53.388;-1.504;2023-04-03T07:55:34;8.90;;;4.50;;
67997;SDS011;54773;53.388;-1.504;2023-04-03T07:58:20;14.93;;;5.13;;
67997;SDS011;54773;53.388;-1.504;2023-04-03T08:01:04;12.10;;;4.67;;
67997;SDS011;54773;53.388;-1.504;2023-04-03T08:06:34;8.88;;;4.30;;
67997;SDS011;54773;53.388;-1.504;2023-04-03T08:09:20;8.13;;;3.80;;
67997;SDS011;54773;53.388;-1.504;2023-04-03T08:12:04;8.13;;;3.65;;
67997;SDS011;54773;53.388;-1.504;2023-04-03T08:14:48;10.27;;;4.57;;
67997;SDS011;54773;53.388;-1.504;2023-04-03T08:17:32;10.70;;;4.50;;
67997;SDS011;54773;53.388;-1.504;2023-04-03T08:20:17;10.95;;;4.07;;
67997;SDS011;54773;53.388;-1.504;2023-04-03T08:23:04;7.60;;;4.07;;
67997;SDS011;54773;53.388;-1.504;2023-04-03T08:25:51;10.40;;;4.50;;
67997;SDS011;54773;53.388;-1.504;2023-04-03T08:28:36;8.60;;;4.63;;
67997;SDS011;54773;53.388;-1.504;2023-04-03T08:31:21;9.20;;;4.15;;
67997;SDS011;54773;53.388;-1.504;2023-04-03T08:34:05;7.13;;;4.00;;
67997;SDS011;54773;53.388;-1.504;2023-04-03T08:36:50;11.65;;;4.78;;
67997;SDS011;54773;53.388;-1.504;2023-04-03T08:39:34;10.65;;;3.90;;
67997;SDS011;54773;53.388;-1.504;2023-04-03T08:45:43;6.68;;;1.60;;
67997;SDS011;54773;53.388;-1.504;2023-04-03T08:48:31;5.30;;;1.75;;
67997;SDS011;54773;53.388;-1.504;2023-04-03T08:51:19;6.78;;;1.73;;
67997;SDS011;54773;53.388;-1.504;2023-04-03T08:54:04;7.38;;;1.83;;
67997;SDS011;54773;53.388;-1.504;2023-04-03T08:56:56;5.50;;;1.27;;
67997;SDS011;54773;53.388;-1.504;2023-04-03T08:59:41;5.78;;;1.35;;
67997;SDS011;54773;53.388;-1.504;2023-04-03T09:02:28;4.57;;;1.33;;
67997;SDS011;54773;53.388;-1.504;2023-04-03T09:05:32;5.38;;;1.65;;
67997;SDS011;54773;53.388;-1.504;2023-04-03T09:08:33;6.75;;;1.30;;
67997;SDS011;54773;53.388;-1.504;2023-04-03T09:11:25;9.18;;;1.58;;
67997;SDS011;54773;53.388;-1.504;2023-04-03T09:14:22;3.25;;;1.60;;
67997;SDS011;54773;53.388;-1.504;2023-04-03T09:22:51;7.93;;;1.83;;
67997;SDS011;54773;53.388;-1.504;2023-04-03T09:25:36;6.18;;;1.90;;
67997;SDS011;54773;53.388;-1.504;2023-04-03T09:28:21;4.43;;;1.98;;
67997;SDS011;54773;53.388;-1.504;2023-04-03T09:31:11;7.93;;;2.38;;
67997;SDS011;54773;53.388;-1.504;2023-04-03T09:34:02;7.03;;;2.47;;
67997;SDS011;54773;53.388;-1.504;2023-04-03T09:36:48;6.32;;;2.40;;
67997;SDS011;54773;53.388;-1.504;2023-04-03T09:39:51;4.72;;;2.05;;
67997;SDS011;54773;53.388;-1.504;2023-04-03T09:42:38;5.63;;;1.85;;
67997;SDS011;54773;53.388;-1.504;2023-04-03T09:45:26;6.53;;;1.80;;
67997;SDS011;54773;53.388;-1.504;2023-04-03T09:50:57;7.75;;;1.70;;
67997;SDS011;54773;53.388;-1.504;2023-04-03T09:53:43;6.72;;;2.03;;
67997;SDS011;54773;53.388;-1.504;2023-04-03T09:56:29;6.50;;;1.58;;
67997;SDS011;54773;53.388;-1.504;2023-04-03T09:59:14;4.45;;;1.50;;
67997;SDS011;54773;53.388;-1.504;2023-04-03T10:08:33;7.85;;;1.77;;
67997;SDS011;54773;53.388;-1.504;2023-04-03T10:11:18;5.28;;;1.38;;
67997;SDS011;54773;53.388;-1.504;2023-04-03T10:14:02;5.55;;;1.65;;
67997;SDS011;54773;53.388;-1.504;2023-04-03T10:20:44;5.43;;;1.23;;
67997;SDS011;54773;53.388;-1.504;2023-04-03T10:23:28;5.85;;;1.25;;
67997;SDS011;54773;53.388;-1.504;2023-04-03T10:35:56;5.22;;;1.50;;
67997;SDS011;54773;53.388;-1.504;2023-04-03T10:39:02;8.05;;;1.60;;
67997;SDS011;54773;53.388;-1.504;2023-04-03T10:42:02;7.43;;;1.85;;
67997;SDS011;54773;53.388;-1.504;2023-04-03T10:45:26;6.05;;;1.90;;
67997;SDS011;54773;53.388;-1.504;2023-04-03T10:48:23;3.92;;;1.63;;
67997;SDS011;54773;53.388;-1.504;2023-04-03T10:54:17;6.68;;;1.70;;
67997;SDS011;54773;53.388;-1.504;2023-04-03T10:57:06;8.80;;;1.67;;
67997;SDS011;54773;53.388;-1.504;2023-04-03T11:00:07;5.90;;;1.90;;
67997;SDS011;54773;53.388;-1.504;2023-04-03T11:03:03;5.65;;;1.77;;
67997;SDS011;54773;53.388;-1.504;2023-04-03T11:06:10;6.03;;;1.80;;
67997;SDS011;54773;53.388;-1.504;2023-04-03T11:11:51;9.48;;;2.00;;
67997;SDS011;54773;53.388;-1.504;2023-04-03T11:14:37;5.45;;;2.22;;
67997;SDS011;54773;53.388;-1.504;2023-04-03T11:17:25;6.13;;;1.90;;
67997;SDS011;54773;53.388;-1.504;2023-04-03T11:23:24;6.43;;;2.27;;
67997;SDS011;54773;53.388;-1.504;2023-04-03T11:26:13;6.50;;;1.85;;
67997;SDS011;54773;53.388;-1.504;2023-04-03T11:29:07;7.30;;;2.08;;
67997;SDS011;54773;53.388;-1.504;2023-04-03T11:35:14;4.63;;;1.60;;
67997;SDS011;54773;53.388;-1.504;2023-04-03T11:37:59;7.75;;;2.30;;
67997;SDS011;54773;53.388;-1.504;2023-04-03T11:40:44;8.77;;;2.25;;
67997;SDS011;54773;53.388;-1.504;2023-04-03T11:43:30;6.95;;;1.70;;
67997;SDS011;54773;53.388;-1.504;2023-04-03T11:46:17;4.82;;;1.55;;
67997;SDS011;54773;53.388;-1.504;2023-04-03T11:49:03;6.43;;;2.28;;
67997;SDS011;54773;53.388;-1.504;2023-04-03T11:51:47;8.00;;;3.47;;
67997;SDS011;54773;53.388;-1.504;2023-04-03T11:54:35;6.10;;;1.98;;
67997;SDS011;54773;53.388;-1.504;2023-04-03T12:09:33;6.00;;;1.98;;
67997;SDS011;54773;53.388;-1.504;2023-04-03T12:12:37;9.20;;;1.98;;
67997;SDS011;54773;53.388;-1.504;2023-04-03T12:15:24;7.50;;;2.15;;
67997;SDS011;54773;53.388;-1.504;2023-04-03T12:29:48;5.88;;;2.22;;
67997;SDS011;54773;53.388;-1.504;2023-04-03T12:42:12;7.03;;;2.03;;
67997;SDS011;54773;53.388;-1.504;2023-04-03T12:45:03;6.90;;;2.08;;
67997;SDS011;54773;53.388;-1.504;2023-04-03T12:47:54;6.70;;;2.53;;
67997;SDS011;54773;53.388;-1.504;2023-04-03T12:50:39;4.43;;;2.03;;
67997;SDS011;54773;53.388;-1.504;2023-04-03T12:53:25;5.88;;;2.00;;
67997;SDS011;54773;53.388;-1.504;2023-04-03T12:59:16;5.90;;;2.03;;
67997;SDS011;54773;53.388;-1.504;2023-04-03T13:02:02;4.20;;;1.75;;
67997;SDS011;54773;53.388;-1.504;2023-04-03T13:04:46;7.97;;;2.33;;
67997;SDS011;54773;53.388;-1.504;2023-04-03T13:07:32;6.85;;;2.20;;
67997;SDS011;54773;53.388;-1.504;2023-04-03T13:10:18;6.60;;;2.30;;
67997;SDS011;54773;53.388;-1.504;2023-04-03T13:13:08;4.55;;;2.28;;
67997;SDS011;54773;53.388;-1.504;2023-04-03T13:15:53;8.88;;;3.13;;
67997;SDS011;54773;53.388;-1.504;2023-04-03T13:18:38;4.55;;;1.98;;
67997;SDS011;54773;53.388;-1.504;2023-04-03T13:21:27;6.85;;;2.45;;
67997;SDS011;54773;53.388;-1.504;2023-04-03T13:24:12;6.20;;;2.40;;
67997;SDS011;54773;53.388;-1.504;2023-04-03T13:27:00;10.98;;;2.67;;
67997;SDS011;54773;53.388;-1.504;2023-04-03T13:29:48;6.60;;;2.30;;
67997;SDS011;54773;53.388;-1.504;2023-04-03T13:32:36;6.75;;;1.98;;
67997;SDS011;54773;53.388;-1.504;2023-04-03T13:35:28;8.18;;;2.78;;
67997;SDS011;54773;53.388;-1.504;2023-04-03T13:41:20;6.82;;;2.10;;
67997;SDS011;54773;53.388;-1.504;2023-04-03T13:50:01;6.57;;;2.20;;
67997;SDS011;54773;53.388;-1.504;2023-04-03T13:53:11;7.55;;;2.90;;
67997;SDS011;54773;53.388;-1.504;2023-04-03T13:56:07;5.07;;;2.40;;
67997;SDS011;54773;53.388;-1.504;2023-04-03T13:58:59;5.13;;;2.33;;
67997;SDS011;54773;53.388;-1.504;2023-04-03T14:07:24;5.95;;;2.22;;
67997;SDS011;54773;53.388;-1.504;2023-04-03T14:10:09;6.47;;;2.33;;
67997;SDS011;54773;53.388;-1.504;2023-04-03T14:12:54;4.00;;;2.10;;
67997;SDS011;54773;53.388;-1.504;2023-04-03T14:15:39;7.05;;;2.50;;
67997;SDS011;54773;53.388;-1.504;2023-04-03T14:18:24;5.18;;;1.95;;
67997;SDS011;54773;53.388;-1.504;2023-04-03T14:21:12;5.80;;;1.90;;
67997;SDS011;54773;53.388;-1.504;2023-04-03T14:23:57;4.30;;;2.10;;
67997;SDS011;54773;53.388;-1.504;2023-04-03T14:26:41;4.82;;;2.25;;
67997;SDS011;54773;53.388;-1.504;2023-04-03T14:29:25;8.27;;;2.45;;
67997;SDS011;54773;53.388;-1.504;2023-04-03T14:32:13;5.22;;;2.05;;
67997;SDS011;54773;53.388;-1.504;2023-04-03T14:35:03;9.00;;;2.50;;
67997;SDS011;54773;53.388;-1.504;2023-04-03T14:37:48;6.15;;;2.10;;
67997;SDS011;54773;53.388;-1.504;2023-04-03T14:40:38;6.70;;;2.63;;
67997;SDS011;54773;53.388;-1.504;2023-04-03T14:43:23;9.45;;;2.58;;
67997;SDS011;54773;53.388;-1.504;2023-04-03T14:46:15;6.00;;;2.25;;
67997;SDS011;54773;53.388;-1.504;2023-04-03T14:49:15;8.10;;;1.90;;
67997;SDS011;54773;53.388;-1.504;2023-04-03T14:52:01;6.32;;;2.20;;
67997;SDS011;54773;53.388;-1.504;2023-04-03T14:54:44;6.43;;;2.37;;
67997;SDS011;54773;53.388;-1.504;2023-04-03T14:57:29;6.30;;;1.83;;
67997;SDS011;54773;53.388;-1.504;2023-04-03T15:00:17;5.03;;;1.80;;
67997;SDS011;54773;53.388;-1.504;2023-04-03T15:03:04;5.68;;;1.85;;
67997;SDS011;54773;53.388;-1.504;2023-04-03T15:05:48;5.45;;;1.77;;
67997;SDS011;54773;53.388;-1.504;2023-04-03T15:08:36;6.97;;;2.20;;
67997;SDS011;54773;53.388;-1.504;2023-04-03T15:11:20;4.82;;;1.95;;
67997;SDS011;54773;53.388;-1.504;2023-04-03T15:14:04;6.15;;;2.05;;
67997;SDS011;54773;53.388;-1.504;2023-04-03T15:16:48;9.50;;;2.05;;
67997;SDS011;54773;53.388;-1.504;2023-04-03T15:19:37;6.38;;;2.15;;
67997;SDS011;54773;53.388;-1.504;2023-04-03T15:22:22;5.32;;;2.03;;
67997;SDS011;54773;53.388;-1.504;2023-04-03T15:25:09;7.35;;;1.88;;
67997;SDS011;54773;53.388;-1.504;2023-04-03T15:27:54;5.93;;;2.30;;
67997;SDS011;54773;53.388;-1.504;2023-04-03T15:30:39;6.18;;;2.20;;
67997;SDS011;54773;53.388;-1.504;2023-04-03T15:33:24;5.10;;;2.35;;
67997;SDS011;54773;53.388;-1.504;2023-04-03T15:36:09;6.53;;;2.25;;
67997;SDS011;54773;53.388;-1.504;2023-04-03T15:38:53;4.05;;;1.90;;
67997;SDS011;54773;53.388;-1.504;2023-04-03T15:41:37;6.33;;;1.90;;
67997;SDS011;54773;53.388;-1.504;2023-04-03T15:44:21;5.53;;;2.40;;
67997;SDS011;54773;53.388;-1.504;2023-04-03T15:47:05;4.95;;;2.00;;
67997;SDS011;54773;53.388;-1.504;2023-04-03T15:49:49;5.50;;;2.15;;
67997;SDS011;54773;53.388;-1.504;2023-04-03T15:52:34;6.28;;;2.50;;
67997;SDS011;54773;53.388;-1.504;2023-04-03T15:55:29;5.30;;;2.28;;
67997;SDS011;54773;53.388;-1.504;2023-04-03T15:58:15;5.50;;;2.60;;
67997;SDS011;54773;53.388;-1.504;2023-04-03T16:00:59;8.07;;;2.72;;
67997;SDS011;54773;53.388;-1.504;2023-04-03T16:03:59;5.95;;;2.47;;
67997;SDS011;54773;53.388;-1.504;2023-04-03T16:06:43;6.38;;;2.45;;
67997;SDS011;54773;53.388;-1.504;2023-04-03T16:09:27;6.55;;;2.10;;
67997;SDS011;54773;53.388;-1.504;2023-04-03T16:12:11;5.88;;;2.00;;
67997;SDS011;54773;53.388;-1.504;2023-04-03T16:15:02;5.75;;;2.08;;
67997;SDS011;54773;53.388;-1.504;2023-04-03T16:17:46;7.88;;;2.70;;
67997;SDS011;54773;53.388;-1.504;2023-04-03T16:20:32;6.88;;;2.50;;
67997;SDS011;54773;53.388;-1.504;2023-04-03T16:23:15;4.60;;;2.13;;
67997;SDS011;54773;53.388;-1.504;2023-04-03T16:26:00;5.68;;;2.40;;
67997;SDS011;54773;53.388;-1.504;2023-04-03T16:28:48;5.93;;;2.70;;
67997;SDS011;54773;53.388;-1.504;2023-04-03T16:31:32;9.00;;;2.53;;
67997;SDS011;54773;53.388;-1.504;2023-04-03T16:34:17;6.10;;;2.88;;
67997;SDS011;54773;53.388;-1.504;2023-04-03T16:37:00;9.27;;;3.35;;
67997;SDS011;54773;53.388;-1.504;2023-04-03T16:39:45;7.20;;;3.67;;
67997;SDS011;54773;53.388;-1.504;2023-04-03T16:42:29;8.07;;;3.00;;
67997;SDS011;54773;53.388;-1.504;2023-04-03T16:45:13;4.60;;;2.57;;
67997;SDS011;54773;53.388;-1.504;2023-04-03T16:47:57;5.93;;;2.70;;
67997;SDS011;54773;53.388;-1.504;2023-04-03T16:50:41;5.53;;;2.85;;
67997;SDS011;54773;53.388;-1.504;2023-04-03T16:53:25;12.07;;;7.10;;
67997;SDS011;54773;53.388;-1.504;2023-04-03T16:56:12;5.63;;;2.70;;
67997;SDS011;54773;53.388;-1.504;2023-04-03T16:58:55;12.03;;;4.27;;
67997;SDS011;54773;53.388;-1.504;2023-04-03T17:01:43;7.22;;;2.70;;
67997;SDS011;54773;53.388;-1.504;2023-04-03T17:04:34;8.48;;;3.22;;
67997;SDS011;54773;53.388;-1.504;2023-04-03T17:07:21;5.90;;;2.53;;
67997;SDS011;54773;53.388;-1.504;2023-04-03T17:10:10;7.88;;;3.38;;
67997;SDS011;54773;53.388;-1.504;2023-04-03T17:13:01;5.70;;;2.78;;
67997;SDS011;54773;53.388;-1.504;2023-04-03T17:15:48;6.32;;;3.08;;
67997;SDS011;54773;53.388;-1.504;2023-04-03T17:18:32;8.25;;;3.00;;
67997;SDS011;54773;53.388;-1.504;2023-04-03T17:21:23;7.35;;;2.92;;
67997;SDS011;54773;53.388;-1.504;2023-04-03T17:24:07;9.07;;;3.75;;
67997;SDS011;54773;53.388;-1.504;2023-04-03T17:26:52;6.20;;;2.90;;
67997;SDS011;54773;53.388;-1.504;2023-04-03T17:29:36;5.85;;;2.88;;
67997;SDS011;54773;53.388;-1.504;2023-04-03T17:32:20;6.30;;;3.42;;
67997;SDS011;54773;53.388;-1.504;2023-04-03T17:35:04;9.18;;;3.65;;
67997;SDS011;54773;53.388;-1.504;2023-04-03T17:37:49;4.90;;;2.70;;
67997;SDS011;54773;53.388;-1.504;2023-04-03T17:40:33;6.63;;;2.80;;
67997;SDS011;54773;53.388;-1.504;2023-04-03T17:43:17;7.35;;;3.33;;
67997;SDS011;54773;53.388;-1.504;2023-04-03T17:46:02;6.50;;;2.80;;
67997;SDS011;54773;53.388;-1.504;2023-04-03T17:48:51;9.45;;;3.42;;
67997;SDS011;54773;53.388;-1.504;2023-04-03T17:51:35;7.60;;;3.20;;
67997;SDS011;54773;53.388;-1.504;2023-04-03T17:54:19;9.10;;;3.17;;
67997;SDS011;54773;53.388;-1.504;2023-04-03T17:57:03;6.00;;;3.10;;
67997;SDS011;54773;53.388;-1.504;2023-04-03T17:59:48;6.68;;;2.92;;
67997;SDS011;54773;53.388;-1.504;2023-04-03T18:02:33;5.60;;;3.10;;
67997;SDS011;54773;53.388;-1.504;2023-04-03T18:05:18;6.20;;;3.15;;
67997;SDS011;54773;53.388;-1.504;2023-04-03T18:08:02;6.55;;;2.80;;
67997;SDS011;54773;53.388;-1.504;2023-04-03T18:10:47;6.75;;;3.20;;
67997;SDS011;54773;53.388;-1.504;2023-04-03T18:13:31;6.53;;;3.00;;